createdAt,value
2018-06-18T00:01:29.840Z,12.30
2018-06-18T00:03:57.879Z,12.97
2018-06-18T00:06:26.031Z,10.60
2018-06-18T00:08:54.107Z,11.93
2018-06-18T00:11:22.182Z,11.47
2018-06-18T00:13:50.319Z,10.37
2018-06-18T00:16:18.396Z,12.60
2018-06-18T00:18:46.452Z,12.27
2018-06-18T00:21:14.587Z,15.77
2018-06-18T00:23:42.696Z,10.20
2018-06-18T00:26:10.785Z,9.23
2018-06-18T00:28:38.853Z,10.30
2018-06-18T00:31:07.227Z,11.90
2018-06-18T00:33:35.267Z,10.57
2018-06-18T00:36:03.315Z,9.43
2018-06-18T00:38:31.386Z,11.27
2018-06-18T00:40:59.430Z,11.17
2018-06-18T00:43:27.831Z,10.07
2018-06-18T00:45:55.896Z,12.93
2018-06-18T00:48:23.964Z,11.43
2018-06-18T00:50:52.032Z,11.97
2018-06-18T00:53:20.128Z,11.90
2018-06-18T00:55:59.779Z,11.87
2018-06-18T00:58:27.856Z,10.90
2018-06-18T01:00:55.942Z,10.27
2018-06-18T01:03:23.983Z,10.57
2018-06-18T01:05:52.028Z,10.20
2018-06-18T01:08:20.104Z,11.50
2018-06-18T01:10:48.174Z,10.37
2018-06-18T01:13:16.223Z,8.53
2018-06-18T01:15:44.262Z,9.93
2018-06-18T01:18:12.312Z,12.47
2018-06-18T01:20:40.391Z,10.40
2018-06-18T01:23:20.915Z,10.03
2018-06-18T01:25:49.061Z,10.30
2018-06-18T01:28:17.243Z,9.37
2018-06-18T01:30:45.302Z,12.37
2018-06-18T01:33:13.348Z,8.03
2018-06-18T01:35:41.425Z,10.90
2018-06-18T01:38:09.487Z,10.37
2018-06-18T01:40:37.595Z,12.80
2018-06-18T01:43:05.667Z,14.53
2018-06-18T01:45:33.723Z,9.20
2018-06-18T01:48:01.773Z,10.43
2018-06-18T01:50:29.976Z,10.77
2018-06-18T01:52:58.061Z,14.87
2018-06-18T01:55:26.162Z,8.27
2018-06-18T01:57:54.391Z,10.63
2018-06-18T02:00:22.437Z,7.40
2018-06-18T02:02:50.507Z,7.23
2018-06-18T02:05:18.603Z,10.47
2018-06-18T02:07:46.667Z,9.07
2018-06-18T02:10:14.746Z,14.23
2018-06-18T02:12:42.836Z,10.83
2018-06-18T02:15:10.913Z,8.77
2018-06-18T02:17:39.003Z,10.07
2018-06-18T02:20:07.088Z,10.43
2018-06-18T02:22:35.161Z,8.90
2018-06-18T02:25:03.258Z,9.47
2018-06-18T02:27:36.685Z,9.87
2018-06-18T02:30:10.493Z,10.00
2018-06-18T02:32:43.903Z,14.47
2018-06-18T02:35:17.261Z,8.67
2018-06-18T02:37:50.660Z,11.57
2018-06-18T02:40:24.137Z,8.57
2018-06-18T02:42:52.208Z,9.37
2018-06-18T02:45:20.303Z,12.33
2018-06-18T02:47:48.387Z,9.80
2018-06-18T02:50:16.555Z,10.33
2018-06-18T02:52:44.649Z,13.73
2018-06-18T02:55:12.736Z,8.67
2018-06-18T02:57:40.874Z,11.87
2018-06-18T03:00:09.024Z,8.43
2018-06-18T03:02:37.098Z,8.77
2018-06-18T03:05:05.241Z,10.30
2018-06-18T03:07:33.536Z,8.40
2018-06-18T03:10:01.659Z,8.57
2018-06-18T03:12:29.724Z,8.97
2018-06-18T03:14:57.801Z,11.93
2018-06-18T03:17:25.936Z,9.03
2018-06-18T03:19:59.550Z,10.47
2018-06-18T03:23:31.183Z,9.57
2018-06-18T03:26:04.749Z,9.27
2018-06-18T03:28:38.225Z,14.60
2018-06-18T03:31:06.428Z,11.77
2018-06-18T03:33:34.504Z,13.77
2018-06-18T03:36:02.564Z,13.70
2018-06-18T03:38:30.638Z,16.50
2018-06-18T03:40:58.711Z,12.00
2018-06-18T03:43:26.928Z,13.47
2018-06-18T03:45:55.023Z,13.87
2018-06-18T03:48:23.227Z,13.63
2018-06-18T03:50:51.349Z,14.80
2018-06-18T03:53:19.446Z,13.00
2018-06-18T03:55:52.980Z,17.67
2018-06-18T03:58:21.069Z,15.77
2018-06-18T04:02:02.814Z,12.23
2018-06-18T04:04:40.386Z,13.90
2018-06-18T04:07:13.712Z,15.23
2018-06-18T04:09:47.168Z,16.00
2018-06-18T04:12:15.278Z,13.13
2018-06-18T04:14:43.391Z,13.73
2018-06-18T04:17:11.464Z,17.23
2018-06-18T04:19:39.652Z,14.50
2018-06-18T04:22:07.733Z,13.93
2018-06-18T04:24:36.111Z,13.73
2018-06-18T04:27:04.279Z,13.00
2018-06-18T04:29:32.385Z,10.60
2018-06-18T04:32:00.524Z,13.17
2018-06-18T04:34:31.359Z,13.63
2018-06-18T04:36:59.636Z,13.13
2018-06-18T04:39:28.117Z,11.03
2018-06-18T04:42:01.964Z,8.47
2018-06-18T04:44:35.403Z,11.10
2018-06-18T04:47:08.909Z,13.17
2018-06-18T04:49:42.471Z,10.97
2018-06-18T04:52:10.523Z,8.30
2018-06-18T04:54:38.840Z,9.27
2018-06-18T04:57:07.087Z,13.37
2018-06-18T04:59:36.753Z,15.33
2018-06-18T05:02:05.475Z,11.67
2018-06-18T05:04:33.743Z,9.87
2018-06-18T05:07:01.809Z,13.40
2018-06-18T05:10:09.051Z,9.37
2018-06-18T05:12:37.139Z,9.27
2018-06-18T05:15:05.221Z,10.33
2018-06-18T05:17:33.312Z,12.73
2018-06-18T05:20:01.400Z,12.33
2018-06-18T05:22:29.762Z,10.17
2018-06-18T05:24:57.872Z,10.50
2018-06-18T05:27:31.020Z,8.90
2018-06-18T05:30:02.005Z,11.47
2018-06-18T05:32:30.053Z,10.07
2018-06-18T05:34:58.206Z,10.77
2018-06-18T05:37:34.899Z,10.63
2018-06-18T05:40:02.950Z,10.90
2018-06-18T05:42:31.099Z,13.80
2018-06-18T05:44:59.833Z,10.03
2018-06-18T05:47:27.919Z,11.03
2018-06-18T05:49:55.991Z,10.40
2018-06-18T05:52:24.295Z,9.93
2018-06-18T05:54:52.371Z,10.57
2018-06-18T05:57:20.480Z,10.30
2018-06-18T05:59:48.551Z,9.27
2018-06-18T06:02:17.348Z,10.63
2018-06-18T06:04:45.411Z,9.53
2018-06-18T06:07:13.488Z,11.60
2018-06-18T06:09:41.649Z,9.37
2018-06-18T06:12:10.143Z,11.50
2018-06-18T06:14:38.206Z,10.00
2018-06-18T06:17:06.282Z,9.57
2018-06-18T06:19:34.664Z,12.63
2018-06-18T06:22:02.799Z,9.95
2018-06-18T06:24:31.147Z,11.03
2018-06-18T06:26:59.372Z,11.40
2018-06-18T06:29:33.779Z,11.25
2018-06-18T06:32:01.879Z,18.05
2018-06-18T06:34:30.199Z,11.15
2018-06-18T06:36:58.307Z,10.95
2018-06-18T06:39:26.396Z,10.08
2018-06-18T06:42:00.588Z,11.88
2018-06-18T06:44:28.717Z,9.50
2018-06-18T06:46:57.006Z,9.45
2018-06-18T06:49:25.105Z,8.85
2018-06-18T06:51:53.179Z,10.80
2018-06-18T06:54:21.269Z,9.48
2018-06-18T06:56:49.335Z,9.78
2018-06-18T06:59:17.395Z,14.70
2018-06-18T07:01:45.553Z,7.08
2018-06-18T07:04:13.636Z,11.18
2018-06-18T07:06:41.729Z,11.65
2018-06-18T07:09:11.137Z,11.63
2018-06-18T07:11:39.663Z,8.28
2018-06-18T07:14:07.871Z,11.75
2018-06-18T07:16:36.124Z,14.25
2018-06-18T07:19:04.454Z,9.00
2018-06-18T07:21:32.755Z,10.55
2018-06-18T07:24:00.865Z,12.63
2018-06-18T07:26:28.945Z,11.43
2018-06-18T07:28:57.027Z,12.98
2018-06-18T07:31:25.100Z,8.43
2018-06-18T07:33:53.398Z,9.03
2018-06-18T07:36:22.360Z,9.80
2018-06-18T07:38:50.580Z,12.58
2018-06-18T07:41:18.648Z,11.48
2018-06-18T07:43:46.745Z,8.45
2018-06-18T07:46:15.030Z,13.18
2018-06-18T07:48:43.085Z,9.63
2018-06-18T07:51:11.155Z,15.60
2018-06-18T07:53:39.423Z,14.78
2018-06-18T07:56:07.536Z,12.00
2018-06-18T07:58:35.616Z,10.23
2018-06-18T08:01:04.838Z,9.78
2018-06-18T08:03:32.964Z,12.55
2018-06-18T08:06:01.051Z,9.98
2018-06-18T08:08:29.723Z,15.28
2018-06-18T08:10:58.408Z,12.98
2018-06-18T08:13:26.610Z,11.20
2018-06-18T08:15:54.748Z,10.75
2018-06-18T08:18:22.821Z,13.00
2018-06-18T08:20:50.903Z,11.03
2018-06-18T08:23:19.002Z,12.68
2018-06-18T08:25:47.100Z,9.05
2018-06-18T08:28:15.320Z,8.23
2018-06-18T08:30:43.411Z,11.55
2018-06-18T08:33:11.492Z,12.80
2018-06-18T08:35:39.580Z,11.28
2018-06-18T08:38:07.675Z,8.90
2018-06-18T08:40:35.921Z,10.20
2018-06-18T08:43:04.001Z,11.75
2018-06-18T08:45:32.092Z,9.75
2018-06-18T08:48:00.164Z,11.03
2018-06-18T08:50:33.658Z,11.18
2018-06-18T08:53:07.168Z,11.05
2018-06-18T08:55:40.700Z,8.80
2018-06-18T08:58:14.022Z,10.13
2018-06-18T09:00:47.458Z,9.78
2018-06-18T09:03:20.979Z,13.45
2018-06-18T09:05:59.960Z,14.85
2018-06-18T09:08:33.472Z,10.90
2018-06-18T09:11:01.707Z,12.82
2018-06-18T09:13:29.819Z,10.18
2018-06-18T09:15:57.971Z,11.18
2018-06-18T09:18:26.052Z,9.48
2018-06-18T09:20:54.255Z,9.30
2018-06-18T09:23:22.340Z,13.48
2018-06-18T09:25:55.678Z,10.20
2018-06-18T09:28:23.761Z,10.60
2018-06-18T09:30:51.872Z,7.62
2018-06-18T09:33:20.019Z,9.30
2018-06-18T09:35:48.185Z,9.15
2018-06-18T09:38:16.258Z,10.60
2018-06-18T09:40:44.327Z,9.85
2018-06-18T09:43:12.392Z,8.33
2018-06-18T09:48:27.488Z,11.60
2018-06-18T09:51:01.594Z,7.87
2018-06-18T09:53:35.103Z,7.65
2018-06-18T09:56:08.660Z,8.38
2018-06-18T09:58:42.256Z,9.35
2018-06-18T10:01:42.862Z,6.03
2018-06-18T10:04:11.049Z,5.87
2018-06-18T10:06:39.785Z,9.53
2018-06-18T10:09:10.700Z,12.78
2018-06-18T10:11:38.834Z,5.15
2018-06-18T10:14:09.811Z,8.10
2018-06-18T10:16:37.964Z,9.65
2018-06-18T10:19:06.050Z,6.50
2018-06-18T10:21:34.296Z,6.28
2018-06-18T10:24:02.565Z,6.75
2018-06-18T10:26:31.373Z,7.97
2018-06-18T10:28:59.447Z,7.47
2018-06-18T10:31:27.684Z,6.87
2018-06-18T10:34:01.239Z,7.67
2018-06-18T10:36:34.739Z,7.00
2018-06-18T10:39:08.183Z,8.83
2018-06-18T10:41:41.731Z,6.70
2018-06-18T10:44:09.780Z,4.92
2018-06-18T10:46:37.928Z,5.78
2018-06-18T10:49:06.057Z,3.80
2018-06-18T10:51:34.097Z,4.85
2018-06-18T10:54:02.227Z,4.22
2018-06-18T10:56:46.435Z,6.05
2018-06-18T10:59:14.512Z,4.50
2018-06-18T11:01:42.703Z,5.72
2018-06-18T11:04:16.237Z,4.87
2018-06-18T11:06:44.280Z,3.62
2018-06-18T11:09:12.348Z,3.67
2018-06-18T11:11:40.484Z,4.00
2018-06-18T11:14:08.733Z,2.55
2018-06-18T11:16:36.960Z,3.12
2018-06-18T11:19:10.621Z,8.15
2018-06-18T11:21:44.106Z,4.87
2018-06-18T11:24:17.595Z,3.20
2018-06-18T11:26:51.215Z,3.05
2018-06-18T11:29:19.456Z,3.83
2018-06-18T11:31:47.495Z,4.65
2018-06-18T11:34:15.543Z,4.85
2018-06-18T11:36:43.707Z,3.80
2018-06-18T11:39:11.716Z,5.20
2018-06-18T11:41:40.050Z,2.60
2018-06-18T11:44:08.156Z,4.70
2018-06-18T11:46:36.407Z,4.15
2018-06-18T11:49:04.612Z,4.60
2018-06-18T11:51:32.776Z,2.50
2018-06-18T11:54:00.908Z,4.28
2018-06-18T11:56:29.108Z,3.83
2018-06-18T11:59:02.453Z,4.10
2018-06-18T12:01:36.435Z,3.15
2018-06-18T12:04:10.077Z,4.15
2018-06-18T12:06:43.650Z,4.42
2018-06-18T12:09:16.987Z,3.42
2018-06-18T12:11:45.952Z,5.97
2018-06-18T12:14:14.352Z,3.92
2018-06-18T12:16:42.505Z,4.45
2018-06-18T12:19:10.551Z,3.37
2018-06-18T12:21:38.680Z,3.80
2018-06-18T12:24:07.718Z,3.90
2018-06-18T12:26:35.755Z,3.42
2018-06-18T12:29:03.952Z,5.20
2018-06-18T12:31:32.023Z,4.97
2018-06-18T12:34:00.166Z,3.35
2018-06-18T12:36:28.607Z,3.12
2018-06-18T12:38:56.980Z,4.72
2018-06-18T12:41:25.056Z,5.45
2018-06-18T12:43:55.123Z,8.85
2018-06-18T12:46:29.040Z,5.97
2018-06-18T12:49:02.618Z,5.25
2018-06-18T12:51:37.206Z,5.67
2018-06-18T12:54:10.993Z,4.35
2018-06-18T12:56:44.619Z,4.40
2018-06-18T12:59:12.942Z,6.35
2018-06-18T13:01:46.220Z,5.45
2018-06-18T13:04:14.256Z,4.03
2018-06-18T13:06:42.310Z,4.87
2018-06-18T13:09:10.349Z,5.05
2018-06-18T13:11:38.567Z,6.33
2018-06-18T13:14:06.617Z,6.90
2018-06-18T13:16:34.807Z,5.42
2018-06-18T13:19:02.946Z,5.65
2018-06-18T13:21:31.006Z,6.72
2018-06-18T13:23:59.327Z,5.20
2018-06-18T13:26:27.352Z,7.10
2018-06-18T13:28:55.379Z,6.67
2018-06-18T13:31:23.414Z,5.62
2018-06-18T13:33:51.429Z,5.85
2018-06-18T13:36:19.492Z,9.73
2018-06-18T13:38:52.963Z,7.67
2018-06-18T13:41:26.455Z,8.33
2018-06-18T13:44:00.056Z,9.50
2018-06-18T13:46:33.488Z,8.20
2018-06-18T13:49:01.700Z,9.00
2018-06-18T13:51:29.870Z,7.62
2018-06-18T13:53:57.899Z,7.00
2018-06-18T13:56:25.940Z,7.67
2018-06-18T13:58:54.476Z,9.60
2018-06-18T14:01:22.524Z,9.08
2018-06-18T14:03:50.636Z,11.33
2018-06-18T14:06:18.693Z,12.07
2018-06-18T14:08:46.720Z,7.83
2018-06-18T14:11:14.843Z,8.68
2018-06-18T14:13:42.932Z,8.55
2018-06-18T14:16:10.933Z,16.35
2018-06-18T14:18:38.967Z,7.15
2018-06-18T14:21:06.999Z,8.53
2018-06-18T14:23:35.044Z,8.45
2018-06-18T14:26:03.314Z,6.10
2018-06-18T14:28:31.346Z,9.00
2018-06-18T14:31:04.921Z,6.92
2018-06-18T14:33:38.294Z,6.90
2018-06-18T14:36:11.861Z,5.97
2018-06-18T14:38:45.248Z,5.78
2018-06-18T14:41:13.291Z,6.47
2018-06-18T14:43:41.382Z,6.20
2018-06-18T14:46:09.581Z,7.97
2018-06-18T14:48:37.792Z,8.75
2018-06-18T14:51:06.004Z,6.67
2018-06-18T14:53:33.998Z,8.58
2018-06-18T14:56:15.727Z,6.87
2018-06-18T14:58:48.228Z,8.10
2018-06-18T15:01:16.301Z,7.62
2018-06-18T15:03:44.390Z,7.72
2018-06-18T15:06:12.404Z,6.75
2018-06-18T15:08:40.540Z,11.33
2018-06-18T15:11:08.607Z,9.18
2018-06-18T15:13:36.660Z,9.03
2018-06-18T15:16:10.060Z,8.25
2018-06-18T15:18:38.117Z,8.93
2018-06-18T15:21:06.443Z,12.75
2018-06-18T15:23:34.415Z,17.60
2018-06-18T15:26:02.547Z,14.15
2018-06-18T15:28:30.519Z,18.60
2018-06-18T15:30:58.551Z,15.95
2018-06-18T15:33:26.746Z,8.00
2018-06-18T15:35:54.771Z,6.28
2018-06-18T15:39:25.720Z,8.18
2018-06-18T15:41:53.970Z,6.72
2018-06-18T15:44:22.061Z,4.47
2018-06-18T15:46:50.047Z,6.20
2018-06-18T15:49:18.127Z,4.92
2018-06-18T15:51:46.207Z,4.65
2018-06-18T15:54:14.354Z,4.35
2018-06-18T15:56:42.859Z,3.92
2018-06-18T15:59:11.524Z,2.95
2018-06-18T16:01:40.798Z,3.60
2018-06-18T16:04:09.488Z,4.15
2018-06-18T16:06:37.980Z,4.50
2018-06-18T16:09:09.207Z,3.72
2018-06-18T16:11:38.134Z,6.15
2018-06-18T16:14:06.863Z,8.18
2018-06-18T16:16:34.950Z,4.92
2018-06-18T16:19:03.139Z,5.10
2018-06-18T16:21:31.194Z,10.25
2018-06-18T16:23:59.223Z,6.75
2018-06-18T16:26:27.312Z,7.78
2018-06-18T16:28:55.722Z,11.22
2018-06-18T16:31:23.851Z,11.38
2018-06-18T16:33:51.897Z,9.75
2018-06-18T16:36:20.055Z,5.47
2018-06-18T16:38:48.106Z,6.42
2018-06-18T16:41:16.211Z,6.60
2018-06-18T16:43:44.383Z,6.42
2018-06-18T16:46:12.675Z,6.60
2018-06-18T16:48:40.843Z,5.60
2018-06-18T16:51:09.192Z,5.97
2018-06-18T16:53:37.441Z,5.95
2018-06-18T16:56:05.818Z,5.65
2018-06-18T16:58:33.976Z,6.53
2018-06-18T17:01:02.817Z,6.95
2018-06-18T17:03:31.475Z,15.15
2018-06-18T17:06:00.285Z,7.60
2018-06-18T17:08:28.370Z,6.62
2018-06-18T17:10:56.541Z,5.58
2018-06-18T17:13:24.708Z,6.50
2018-06-18T17:15:52.929Z,4.62
2018-06-18T17:18:20.994Z,5.78
2018-06-18T17:20:49.850Z,5.75
2018-06-18T17:23:18.224Z,4.85
2018-06-18T17:25:46.325Z,4.33
2018-06-18T17:28:14.457Z,5.67
2018-06-18T17:30:42.716Z,7.12
2018-06-18T17:33:10.754Z,5.55
2018-06-18T17:35:38.860Z,4.65
2018-06-18T17:38:06.910Z,9.10
2018-06-18T17:40:35.036Z,6.00
2018-06-18T17:43:03.082Z,7.15
2018-06-18T17:45:31.156Z,5.30
2018-06-18T17:47:59.331Z,4.75
2018-06-18T17:50:27.353Z,4.78
2018-06-18T17:52:55.409Z,4.87
2018-06-18T17:55:23.483Z,7.10
2018-06-18T17:57:51.543Z,5.92
2018-06-18T18:00:19.600Z,5.53
2018-06-18T18:02:47.937Z,7.10
2018-06-18T18:05:16.032Z,4.92
2018-06-18T18:07:44.081Z,5.08
2018-06-18T18:10:12.271Z,4.53
2018-06-18T18:12:40.346Z,6.60
2018-06-18T18:15:08.407Z,4.22
2018-06-18T18:17:36.496Z,6.22
2018-06-18T18:20:04.571Z,5.30
2018-06-18T18:22:32.609Z,5.37
2018-06-18T18:25:00.635Z,5.83
2018-06-18T18:27:28.707Z,5.87
2018-06-18T18:29:56.918Z,4.37
2018-06-18T18:32:25.265Z,4.80
2018-06-18T18:34:53.779Z,4.50
2018-06-18T18:37:22.623Z,4.50
2018-06-18T18:39:51.641Z,4.65
2018-06-18T18:42:20.868Z,5.45
2018-06-18T18:44:49.856Z,4.50
2018-06-18T18:47:19.164Z,4.75
2018-06-18T18:49:47.702Z,9.48
2018-06-18T18:52:16.256Z,6.30
2018-06-18T18:55:56.895Z,7.37
2018-06-18T18:58:47.319Z,8.08
2018-06-18T19:01:16.567Z,8.63
2018-06-18T19:03:48.091Z,5.08
2018-06-18T19:06:17.929Z,4.37
2018-06-18T19:08:46.159Z,6.83
2018-06-18T19:11:15.574Z,6.55
2018-06-18T19:13:45.015Z,5.00
2018-06-18T19:16:14.263Z,6.22
2018-06-18T19:18:46.461Z,5.30
2018-06-18T19:21:14.521Z,4.65
2018-06-18T19:23:42.591Z,5.70
2018-06-18T19:26:10.727Z,4.47
2018-06-18T19:28:38.823Z,6.95
2018-06-18T19:31:23.677Z,7.10
2018-06-18T19:33:59.419Z,6.47
2018-06-18T19:36:28.415Z,5.90
2018-06-18T19:38:57.174Z,5.53
2018-06-18T19:41:27.855Z,5.50
2018-06-18T19:44:00.399Z,4.92
2018-06-18T19:46:34.727Z,6.60
2018-06-18T19:49:16.619Z,7.22
2018-06-18T19:51:47.318Z,5.83
2018-06-18T19:54:19.918Z,4.78
2018-06-18T19:56:50.066Z,4.95
2018-06-18T19:59:19.087Z,4.67
2018-06-18T20:01:47.694Z,6.03
2018-06-18T20:04:16.081Z,6.33
2018-06-18T20:06:44.820Z,6.13
2018-06-18T20:09:13.805Z,7.78
2018-06-18T20:11:42.313Z,5.53
2018-06-18T20:14:10.760Z,6.30
2018-06-18T20:16:40.184Z,5.35
2018-06-18T20:19:08.785Z,6.70
2018-06-18T20:21:37.183Z,5.15
2018-06-18T20:24:05.846Z,9.25
2018-06-18T20:26:34.532Z,5.40
2018-06-18T20:29:04.747Z,6.33
2018-06-18T20:31:34.883Z,10.63
2018-06-18T20:34:03.976Z,6.42
2018-06-18T20:36:35.677Z,5.55
2018-06-18T20:39:06.848Z,6.80
2018-06-18T20:41:35.975Z,7.00
2018-06-18T20:44:10.375Z,6.75
2018-06-18T20:46:39.688Z,7.95
2018-06-18T20:49:11.179Z,6.30
2018-06-18T20:51:40.428Z,6.65
2018-06-18T20:54:12.449Z,6.72
2018-06-18T20:56:42.849Z,6.83
2018-06-18T20:59:12.708Z,8.73
2018-06-18T21:01:41.726Z,5.50
2018-06-18T21:04:10.141Z,8.43
2018-06-18T21:06:38.872Z,7.53
2018-06-18T21:09:09.769Z,6.25
2018-06-18T21:11:37.856Z,6.37
2018-06-18T21:14:06.803Z,4.78
2018-06-18T21:16:35.022Z,8.18
2018-06-18T21:19:03.107Z,6.08
2018-06-18T21:21:31.098Z,6.30
2018-06-18T21:23:59.185Z,7.25
2018-06-18T21:26:27.488Z,7.70
2018-06-18T21:28:55.512Z,9.13
2018-06-18T21:31:23.648Z,8.75
2018-06-18T21:33:51.905Z,10.70
2018-06-18T21:36:21.045Z,10.95
2018-06-18T21:38:49.126Z,11.88
2018-06-18T21:41:17.171Z,15.53
2018-06-18T21:43:45.223Z,16.27
2018-06-18T21:46:13.595Z,15.75
2018-06-18T21:48:41.753Z,17.67
2018-06-18T21:51:09.792Z,19.05
2018-06-18T21:53:37.863Z,19.48
2018-06-18T21:56:05.896Z,18.80
2018-06-18T21:58:33.931Z,18.30
2018-06-18T22:01:01.972Z,18.17
2018-06-18T22:03:30.083Z,17.35
2018-06-18T22:05:58.147Z,16.90
2018-06-18T22:08:27.743Z,17.90
2018-06-18T22:10:55.902Z,16.87
2018-06-18T22:13:23.960Z,15.33
2018-06-18T22:15:52.012Z,16.93
2018-06-18T22:18:20.224Z,16.80
2018-06-18T22:20:48.278Z,16.00
2018-06-18T22:23:16.324Z,18.57
2018-06-18T22:25:44.372Z,16.87
2018-06-18T22:28:19.573Z,19.13
2018-06-18T22:30:47.636Z,18.70
2018-06-18T22:33:15.678Z,18.07
2018-06-18T22:35:43.728Z,17.10
2018-06-18T22:38:11.856Z,17.60
2018-06-18T22:40:40.023Z,16.37
2018-06-18T22:43:08.196Z,17.27
2018-06-18T22:45:36.344Z,15.43
2018-06-18T22:48:04.575Z,16.13
2018-06-18T22:50:32.634Z,15.60
2018-06-18T22:53:00.735Z,16.70
2018-06-18T22:55:28.815Z,14.70
2018-06-18T22:57:56.903Z,18.67
2018-06-18T23:00:24.956Z,15.97
2018-06-18T23:02:53.047Z,16.80
2018-06-18T23:05:21.071Z,15.77
2018-06-18T23:07:49.147Z,17.53
2018-06-18T23:10:17.276Z,19.10
2018-06-18T23:12:45.568Z,15.43
2018-06-18T23:15:14.332Z,15.50
2018-06-18T23:17:42.407Z,15.37
2018-06-18T23:20:10.846Z,17.37
2018-06-18T23:22:39.592Z,13.87
2018-06-18T23:25:07.928Z,16.03
2018-06-18T23:27:36.095Z,14.27
2018-06-18T23:30:05.318Z,14.10
2018-06-18T23:32:33.568Z,14.23
2018-06-18T23:35:01.658Z,13.27
2018-06-18T23:37:29.951Z,12.63
2018-06-18T23:39:58.452Z,13.47
2018-06-18T23:42:26.607Z,12.77
2018-06-18T23:44:54.643Z,14.13
2018-06-18T23:47:22.700Z,11.90
2018-06-18T23:49:51.080Z,11.50
2018-06-18T23:52:19.709Z,11.57
2018-06-18T23:54:47.759Z,12.50
2018-06-18T23:57:15.823Z,12.43
2018-06-18T23:59:43.952Z,13.20
